Terminal Aerodrome Forecast
Issued by NWS

Home | Current Version | Previous Version | Text Only | Print | Product List | Glossary On
Versions: 1 2 3 4 5 6 7 8 9 10 11 12 13 14 15 16 17 18 19 20 21 22 23 24 25 26 27 28 29 30 31
000
FTUS43 KDMX 252334
TAFMCW
TAF
KMCW 252334Z 2600/2624 34005KT P6SM OVC010
     FM260400 18009KT P6SM BKN016
     FM260800 21005KT P6SM SCT008 BKN010 OVC040
     FM261400 30011KT P6SM SCT015 BKN025
     FM261700 31015KT P6SM SCT015 BKN050=

USA.gov is the U.S. government's official web portal to all federal, state and local government web resources and services.